sensor_id;sensor_type;location;lat;lon;timestamp;P1;durP1;ratioP1;P2;durP2;ratioP2
52650;SDS011;38537;47.226;39.702;2023-02-01T00:01:21;14.95;;;11.45;;
52650;SDS011;38537;47.226;39.702;2023-02-01T00:03:51;16.02;;;11.55;;
52650;SDS011;38537;47.226;39.702;2023-02-01T00:06:18;17.85;;;12.07;;
52650;SDS011;38537;47.226;39.702;2023-02-01T00:08:45;16.67;;;11.77;;
52650;SDS011;38537;47.226;39.702;2023-02-01T00:11:12;15.25;;;10.25;;
52650;SDS011;38537;47.226;39.702;2023-02-01T00:13:40;11.82;;;8.63;;
52650;SDS011;38537;47.226;39.702;2023-02-01T00:16:12;12.43;;;8.93;;
52650;SDS011;38537;47.226;39.702;2023-02-01T00:18:44;20.65;;;10.23;;
52650;SDS011;38537;47.226;39.702;2023-02-01T00:21:13;16.02;;;8.65;;
52650;SDS011;38537;47.226;39.702;2023-02-01T00:23:42;13.70;;;8.18;;
52650;SDS011;38537;47.226;39.702;2023-02-01T00:28:54;10.85;;;7.18;;
52650;SDS011;38537;47.226;39.702;2023-02-01T00:31:21;11.23;;;6.82;;
52650;SDS011;38537;47.226;39.702;2023-02-01T00:33:49;9.57;;;6.18;;
52650;SDS011;38537;47.226;39.702;2023-02-01T00:36:16;10.20;;;6.53;;
52650;SDS011;38537;47.226;39.702;2023-02-01T00:38:44;8.55;;;6.47;;
52650;SDS011;38537;47.226;39.702;2023-02-01T00:41:13;10.30;;;6.78;;
52650;SDS011;38537;47.226;39.702;2023-02-01T00:43:44;13.25;;;7.10;;
52650;SDS011;38537;47.226;39.702;2023-02-01T00:46:12;13.07;;;7.80;;
52650;SDS011;38537;47.226;39.702;2023-02-01T00:48:41;12.80;;;7.70;;
52650;SDS011;38537;47.226;39.702;2023-02-01T00:51:12;13.10;;;8.00;;
52650;SDS011;38537;47.226;39.702;2023-02-01T00:53:42;11.50;;;7.00;;
52650;SDS011;38537;47.226;39.702;2023-02-01T00:56:09;10.77;;;7.70;;
52650;SDS011;38537;47.226;39.702;2023-02-01T00:58:37;11.43;;;7.38;;
52650;SDS011;38537;47.226;39.702;2023-02-01T01:01:05;9.60;;;7.15;;
52650;SDS011;38537;47.226;39.702;2023-02-01T01:03:35;10.10;;;7.38;;
52650;SDS011;38537;47.226;39.702;2023-02-01T01:06:11;11.52;;;7.82;;
52650;SDS011;38537;47.226;39.702;2023-02-01T01:08:40;11.70;;;8.05;;
52650;SDS011;38537;47.226;39.702;2023-02-01T01:11:10;12.93;;;8.15;;
52650;SDS011;38537;47.226;39.702;2023-02-01T01:13:40;11.52;;;8.23;;
52650;SDS011;38537;47.226;39.702;2023-02-01T01:16:09;12.05;;;8.40;;
52650;SDS011;38537;47.226;39.702;2023-02-01T01:18:38;14.38;;;9.40;;
52650;SDS011;38537;47.226;39.702;2023-02-01T01:21:07;13.30;;;8.98;;
52650;SDS011;38537;47.226;39.702;2023-02-01T01:23:35;14.90;;;9.80;;
52650;SDS011;38537;47.226;39.702;2023-02-01T01:26:06;15.50;;;9.75;;
52650;SDS011;38537;47.226;39.702;2023-02-01T01:28:35;14.93;;;9.20;;
52650;SDS011;38537;47.226;39.702;2023-02-01T01:31:04;14.23;;;9.32;;
52650;SDS011;38537;47.226;39.702;2023-02-01T01:33:35;11.55;;;8.48;;
52650;SDS011;38537;47.226;39.702;2023-02-01T01:36:06;14.65;;;9.75;;
52650;SDS011;38537;47.226;39.702;2023-02-01T01:41:07;13.40;;;8.70;;
52650;SDS011;38537;47.226;39.702;2023-02-01T01:43:52;13.85;;;9.32;;
52650;SDS011;38537;47.226;39.702;2023-02-01T01:51:47;13.68;;;9.13;;
52650;SDS011;38537;47.226;39.702;2023-02-01T01:54:26;16.30;;;11.27;;
52650;SDS011;38537;47.226;39.702;2023-02-01T01:56:55;17.80;;;11.30;;
52650;SDS011;38537;47.226;39.702;2023-02-01T01:59:25;23.95;;;14.20;;
52650;SDS011;38537;47.226;39.702;2023-02-01T02:01:53;21.33;;;13.02;;
52650;SDS011;38537;47.226;39.702;2023-02-01T02:04:22;18.95;;;10.82;;
52650;SDS011;38537;47.226;39.702;2023-02-01T02:06:54;18.70;;;11.05;;
52650;SDS011;38537;47.226;39.702;2023-02-01T02:09:28;17.60;;;11.40;;
52650;SDS011;38537;47.226;39.702;2023-02-01T02:11:55;16.52;;;9.88;;
52650;SDS011;38537;47.226;39.702;2023-02-01T02:14:23;18.13;;;10.95;;
52650;SDS011;38537;47.226;39.702;2023-02-01T02:17:22;15.00;;;9.60;;
52650;SDS011;38537;47.226;39.702;2023-02-01T02:22:58;14.73;;;8.93;;
52650;SDS011;38537;47.226;39.702;2023-02-01T02:31:46;21.38;;;11.88;;
52650;SDS011;38537;47.226;39.702;2023-02-01T02:34:04;21.42;;;11.68;;
52650;SDS011;38537;47.226;39.702;2023-02-01T02:45:29;32.60;;;12.80;;
52650;SDS011;38537;47.226;39.702;2023-02-01T02:48:42;34.92;;;13.80;;
52650;SDS011;38537;47.226;39.702;2023-02-01T02:51:20;29.63;;;13.25;;
52650;SDS011;38537;47.226;39.702;2023-02-01T02:54:12;40.47;;;14.57;;
52650;SDS011;38537;47.226;39.702;2023-02-01T02:57:01;40.70;;;14.45;;
52650;SDS011;38537;47.226;39.702;2023-02-01T02:59:50;47.55;;;14.30;;
52650;SDS011;38537;47.226;39.702;2023-02-01T03:02:39;33.40;;;13.60;;
52650;SDS011;38537;47.226;39.702;2023-02-01T03:05:25;27.13;;;13.07;;
52650;SDS011;38537;47.226;39.702;2023-02-01T03:13:36;43.20;;;15.43;;
52650;SDS011;38537;47.226;39.702;2023-02-01T03:16:20;31.02;;;13.77;;
52650;SDS011;38537;47.226;39.702;2023-02-01T03:21:58;36.53;;;14.63;;
52650;SDS011;38537;47.226;39.702;2023-02-01T03:27:30;25.17;;;13.43;;
52650;SDS011;38537;47.226;39.702;2023-02-01T03:32:33;31.50;;;15.20;;
52650;SDS011;38537;47.226;39.702;2023-02-01T03:38:22;26.10;;;13.38;;
52650;SDS011;38537;47.226;39.702;2023-02-01T03:41:00;32.65;;;14.95;;
52650;SDS011;38537;47.226;39.702;2023-02-01T03:44:01;26.27;;;14.10;;
52650;SDS011;38537;47.226;39.702;2023-02-01T03:46:49;29.17;;;14.10;;
52650;SDS011;38537;47.226;39.702;2023-02-01T03:49:29;32.40;;;15.07;;
52650;SDS011;38537;47.226;39.702;2023-02-01T03:52:10;26.98;;;13.63;;
52650;SDS011;38537;47.226;39.702;2023-02-01T03:54:42;37.42;;;13.57;;
52650;SDS011;38537;47.226;39.702;2023-02-01T03:57:13;28.38;;;14.98;;
52650;SDS011;38537;47.226;39.702;2023-02-01T03:59:44;34.08;;;14.02;;
52650;SDS011;38537;47.226;39.702;2023-02-01T04:02:12;26.63;;;13.93;;
52650;SDS011;38537;47.226;39.702;2023-02-01T04:04:39;27.88;;;14.70;;
52650;SDS011;38537;47.226;39.702;2023-02-01T04:07:07;29.42;;;15.13;;
52650;SDS011;38537;47.226;39.702;2023-02-01T04:09:34;28.05;;;14.77;;
52650;SDS011;38537;47.226;39.702;2023-02-01T04:12:01;27.58;;;14.60;;
52650;SDS011;38537;47.226;39.702;2023-02-01T04:14:29;26.42;;;14.05;;
52650;SDS011;38537;47.226;39.702;2023-02-01T04:16:56;29.85;;;15.10;;
52650;SDS011;38537;47.226;39.702;2023-02-01T04:19:23;29.48;;;15.95;;
52650;SDS011;38537;47.226;39.702;2023-02-01T04:21:51;32.83;;;16.08;;
52650;SDS011;38537;47.226;39.702;2023-02-01T04:24:18;31.98;;;16.48;;
52650;SDS011;38537;47.226;39.702;2023-02-01T04:26:45;30.23;;;15.95;;
52650;SDS011;38537;47.226;39.702;2023-02-01T04:29:12;29.13;;;15.23;;
52650;SDS011;38537;47.226;39.702;2023-02-01T04:31:40;30.77;;;15.43;;
52650;SDS011;38537;47.226;39.702;2023-02-01T04:34:07;28.48;;;15.60;;
52650;SDS011;38537;47.226;39.702;2023-02-01T04:36:35;25.90;;;14.02;;
52650;SDS011;38537;47.226;39.702;2023-02-01T04:39:02;26.25;;;13.65;;
52650;SDS011;38537;47.226;39.702;2023-02-01T04:41:30;23.80;;;12.82;;
52650;SDS011;38537;47.226;39.702;2023-02-01T04:43:57;22.17;;;12.35;;
52650;SDS011;38537;47.226;39.702;2023-02-01T04:46:24;16.90;;;10.20;;
52650;SDS011;38537;47.226;39.702;2023-02-01T04:48:51;22.45;;;11.68;;
52650;SDS011;38537;47.226;39.702;2023-02-01T04:51:19;21.42;;;10.70;;
52650;SDS011;38537;47.226;39.702;2023-02-01T04:53:46;19.15;;;10.27;;
52650;SDS011;38537;47.226;39.702;2023-02-01T04:56:13;15.02;;;8.40;;
52650;SDS011;38537;47.226;39.702;2023-02-01T04:58:40;15.82;;;9.50;;
52650;SDS011;38537;47.226;39.702;2023-02-01T05:01:07;14.52;;;9.30;;
52650;SDS011;38537;47.226;39.702;2023-02-01T05:03:35;11.32;;;7.50;;
52650;SDS011;38537;47.226;39.702;2023-02-01T05:06:02;15.68;;;8.93;;
52650;SDS011;38537;47.226;39.702;2023-02-01T05:08:31;15.25;;;9.27;;
52650;SDS011;38537;47.226;39.702;2023-02-01T05:10:58;11.15;;;6.78;;
52650;SDS011;38537;47.226;39.702;2023-02-01T05:13:29;14.30;;;8.50;;
52650;SDS011;38537;47.226;39.702;2023-02-01T05:16:15;13.57;;;8.43;;
52650;SDS011;38537;47.226;39.702;2023-02-01T05:18:43;13.88;;;9.23;;
52650;SDS011;38537;47.226;39.702;2023-02-01T05:21:10;12.70;;;8.57;;
52650;SDS011;38537;47.226;39.702;2023-02-01T05:23:37;12.18;;;8.38;;
52650;SDS011;38537;47.226;39.702;2023-02-01T05:26:24;15.77;;;9.85;;
52650;SDS011;38537;47.226;39.702;2023-02-01T05:28:52;14.77;;;9.68;;
52650;SDS011;38537;47.226;39.702;2023-02-01T05:31:20;10.02;;;6.65;;
52650;SDS011;38537;47.226;39.702;2023-02-01T05:33:48;11.13;;;6.97;;
52650;SDS011;38537;47.226;39.702;2023-02-01T05:36:15;9.75;;;6.63;;
52650;SDS011;38537;47.226;39.702;2023-02-01T05:38:42;13.18;;;7.65;;
52650;SDS011;38537;47.226;39.702;2023-02-01T05:41:10;13.05;;;7.50;;
52650;SDS011;38537;47.226;39.702;2023-02-01T05:43:37;10.80;;;6.80;;
52650;SDS011;38537;47.226;39.702;2023-02-01T05:46:04;14.40;;;8.88;;
52650;SDS011;38537;47.226;39.702;2023-02-01T05:48:31;15.73;;;9.52;;
52650;SDS011;38537;47.226;39.702;2023-02-01T05:51:00;16.95;;;10.07;;
52650;SDS011;38537;47.226;39.702;2023-02-01T05:53:27;14.05;;;8.13;;
52650;SDS011;38537;47.226;39.702;2023-02-01T05:55:54;11.70;;;8.45;;
52650;SDS011;38537;47.226;39.702;2023-02-01T05:58:21;11.45;;;7.78;;
52650;SDS011;38537;47.226;39.702;2023-02-01T06:00:48;9.25;;;6.60;;
52650;SDS011;38537;47.226;39.702;2023-02-01T06:03:16;11.25;;;7.55;;
52650;SDS011;38537;47.226;39.702;2023-02-01T06:05:44;10.88;;;7.32;;
52650;SDS011;38537;47.226;39.702;2023-02-01T06:08:12;10.70;;;7.68;;
52650;SDS011;38537;47.226;39.702;2023-02-01T06:10:39;11.25;;;7.72;;
52650;SDS011;38537;47.226;39.702;2023-02-01T06:13:06;12.07;;;7.88;;
52650;SDS011;38537;47.226;39.702;2023-02-01T06:15:35;12.85;;;8.52;;
52650;SDS011;38537;47.226;39.702;2023-02-01T06:18:04;9.95;;;6.97;;
52650;SDS011;38537;47.226;39.702;2023-02-01T06:20:31;14.93;;;8.10;;
52650;SDS011;38537;47.226;39.702;2023-02-01T06:22:58;11.65;;;7.97;;
52650;SDS011;38537;47.226;39.702;2023-02-01T06:25:25;13.85;;;8.93;;
52650;SDS011;38537;47.226;39.702;2023-02-01T06:27:52;13.43;;;9.10;;
52650;SDS011;38537;47.226;39.702;2023-02-01T06:30:20;13.95;;;9.50;;
52650;SDS011;38537;47.226;39.702;2023-02-01T06:32:50;14.63;;;9.82;;
52650;SDS011;38537;47.226;39.702;2023-02-01T06:35:20;12.07;;;8.25;;
52650;SDS011;38537;47.226;39.702;2023-02-01T06:37:48;12.48;;;7.95;;
52650;SDS011;38537;47.226;39.702;2023-02-01T06:40:15;11.63;;;7.93;;
52650;SDS011;38537;47.226;39.702;2023-02-01T06:42:42;10.82;;;7.50;;
52650;SDS011;38537;47.226;39.702;2023-02-01T06:45:09;10.38;;;7.10;;
52650;SDS011;38537;47.226;39.702;2023-02-01T06:47:37;9.45;;;7.05;;
52650;SDS011;38537;47.226;39.702;2023-02-01T06:50:04;9.88;;;6.93;;
52650;SDS011;38537;47.226;39.702;2023-02-01T06:52:32;9.40;;;6.85;;
52650;SDS011;38537;47.226;39.702;2023-02-01T06:55:00;11.52;;;6.78;;
52650;SDS011;38537;47.226;39.702;2023-02-01T06:57:29;10.00;;;6.72;;
52650;SDS011;38537;47.226;39.702;2023-02-01T06:59:57;14.32;;;8.23;;
52650;SDS011;38537;47.226;39.702;2023-02-01T07:02:25;11.60;;;7.50;;
52650;SDS011;38537;47.226;39.702;2023-02-01T07:04:52;13.35;;;8.27;;
52650;SDS011;38537;47.226;39.702;2023-02-01T07:07:23;13.70;;;9.27;;
52650;SDS011;38537;47.226;39.702;2023-02-01T07:09:50;14.57;;;9.30;;
52650;SDS011;38537;47.226;39.702;2023-02-01T07:12:18;16.30;;;9.63;;
52650;SDS011;38537;47.226;39.702;2023-02-01T07:14:46;15.43;;;9.50;;
52650;SDS011;38537;47.226;39.702;2023-02-01T07:17:13;12.55;;;8.45;;
52650;SDS011;38537;47.226;39.702;2023-02-01T07:19:40;12.05;;;8.30;;
52650;SDS011;38537;47.226;39.702;2023-02-01T07:22:07;18.00;;;8.70;;
52650;SDS011;38537;47.226;39.702;2023-02-01T07:24:34;17.50;;;9.23;;
52650;SDS011;38537;47.226;39.702;2023-02-01T07:27:01;15.63;;;9.27;;
52650;SDS011;38537;47.226;39.702;2023-02-01T07:29:29;13.98;;;9.05;;
52650;SDS011;38537;47.226;39.702;2023-02-01T07:31:56;15.73;;;10.43;;
52650;SDS011;38537;47.226;39.702;2023-02-01T07:34:23;12.60;;;9.10;;
52650;SDS011;38537;47.226;39.702;2023-02-01T07:36:50;15.18;;;10.10;;
52650;SDS011;38537;47.226;39.702;2023-02-01T07:39:18;16.30;;;10.55;;
52650;SDS011;38537;47.226;39.702;2023-02-01T07:41:45;14.13;;;10.40;;
52650;SDS011;38537;47.226;39.702;2023-02-01T07:44:13;15.73;;;10.82;;
52650;SDS011;38537;47.226;39.702;2023-02-01T07:46:40;17.42;;;10.90;;
52650;SDS011;38537;47.226;39.702;2023-02-01T07:49:07;24.05;;;14.10;;
52650;SDS011;38537;47.226;39.702;2023-02-01T07:51:35;15.85;;;11.40;;
52650;SDS011;38537;47.226;39.702;2023-02-01T07:54:02;18.92;;;12.32;;
52650;SDS011;38537;47.226;39.702;2023-02-01T07:56:29;18.15;;;12.25;;
52650;SDS011;38537;47.226;39.702;2023-02-01T07:58:58;16.45;;;11.95;;
52650;SDS011;38537;47.226;39.702;2023-02-01T08:01:28;16.40;;;12.00;;
52650;SDS011;38537;47.226;39.702;2023-02-01T08:03:57;18.00;;;12.80;;
52650;SDS011;38537;47.226;39.702;2023-02-01T08:06:26;15.77;;;11.90;;
52650;SDS011;38537;47.226;39.702;2023-02-01T08:08:58;15.93;;;12.05;;
52650;SDS011;38537;47.226;39.702;2023-02-01T08:11:26;19.40;;;13.27;;
52650;SDS011;38537;47.226;39.702;2023-02-01T08:13:54;17.27;;;12.80;;
52650;SDS011;38537;47.226;39.702;2023-02-01T08:16:22;18.92;;;12.65;;
52650;SDS011;38537;47.226;39.702;2023-02-01T08:18:50;17.20;;;12.77;;
52650;SDS011;38537;47.226;39.702;2023-02-01T08:21:19;16.98;;;13.00;;
52650;SDS011;38537;47.226;39.702;2023-02-01T08:23:51;16.23;;;12.48;;
52650;SDS011;38537;47.226;39.702;2023-02-01T08:26:20;18.48;;;12.63;;
52650;SDS011;38537;47.226;39.702;2023-02-01T08:28:51;16.90;;;11.80;;
52650;SDS011;38537;47.226;39.702;2023-02-01T08:31:21;15.80;;;11.70;;
52650;SDS011;38537;47.226;39.702;2023-02-01T08:33:52;16.42;;;12.02;;
52650;SDS011;38537;47.226;39.702;2023-02-01T08:36:30;16.05;;;11.73;;
52650;SDS011;38537;47.226;39.702;2023-02-01T08:38:58;15.52;;;10.98;;
52650;SDS011;38537;47.226;39.702;2023-02-01T08:41:26;14.02;;;10.48;;
52650;SDS011;38537;47.226;39.702;2023-02-01T08:43:56;13.85;;;10.75;;
52650;SDS011;38537;47.226;39.702;2023-02-01T08:46:25;12.50;;;10.07;;
52650;SDS011;38537;47.226;39.702;2023-02-01T08:48:53;14.63;;;10.23;;
52650;SDS011;38537;47.226;39.702;2023-02-01T08:51:21;17.08;;;10.60;;
52650;SDS011;38537;47.226;39.702;2023-02-01T08:53:49;14.30;;;10.15;;
52650;SDS011;38537;47.226;39.702;2023-02-01T08:56:18;12.73;;;9.35;;
52650;SDS011;38537;47.226;39.702;2023-02-01T08:58:45;11.45;;;9.25;;
52650;SDS011;38537;47.226;39.702;2023-02-01T09:01:14;12.27;;;8.25;;
52650;SDS011;38537;47.226;39.702;2023-02-01T09:03:42;11.90;;;7.75;;
52650;SDS011;38537;47.226;39.702;2023-02-01T09:06:11;9.93;;;7.28;;
52650;SDS011;38537;47.226;39.702;2023-02-01T09:08:39;7.60;;;6.55;;
52650;SDS011;38537;47.226;39.702;2023-02-01T09:11:10;10.98;;;7.30;;
52650;SDS011;38537;47.226;39.702;2023-02-01T09:13:40;10.15;;;7.22;;
52650;SDS011;38537;47.226;39.702;2023-02-01T09:16:08;10.63;;;7.07;;
52650;SDS011;38537;47.226;39.702;2023-02-01T09:18:36;10.95;;;7.63;;
52650;SDS011;38537;47.226;39.702;2023-02-01T09:21:22;10.35;;;7.10;;
52650;SDS011;38537;47.226;39.702;2023-02-01T09:23:52;11.32;;;6.80;;
52650;SDS011;38537;47.226;39.702;2023-02-01T09:26:20;10.27;;;7.18;;
52650;SDS011;38537;47.226;39.702;2023-02-01T09:28:56;8.18;;;6.68;;
52650;SDS011;38537;47.226;39.702;2023-02-01T09:31:23;11.52;;;7.32;;
52650;SDS011;38537;47.226;39.702;2023-02-01T09:33:51;10.50;;;7.90;;
52650;SDS011;38537;47.226;39.702;2023-02-01T09:36:18;12.45;;;8.27;;
52650;SDS011;38537;47.226;39.702;2023-02-01T09:38:46;11.02;;;8.07;;
52650;SDS011;38537;47.226;39.702;2023-02-01T09:41:26;11.77;;;8.63;;
52650;SDS011;38537;47.226;39.702;2023-02-01T09:44:10;11.68;;;7.53;;
52650;SDS011;38537;47.226;39.702;2023-02-01T09:46:39;9.65;;;7.05;;
52650;SDS011;38537;47.226;39.702;2023-02-01T09:49:10;10.23;;;7.95;;
52650;SDS011;38537;47.226;39.702;2023-02-01T09:51:44;10.35;;;7.38;;
52650;SDS011;38537;47.226;39.702;2023-02-01T09:57:11;11.55;;;6.32;;
52650;SDS011;38537;47.226;39.702;2023-02-01T10:00:04;10.07;;;8.27;;
52650;SDS011;38537;47.226;39.702;2023-02-01T10:02:42;10.75;;;8.40;;
52650;SDS011;38537;47.226;39.702;2023-02-01T10:05:14;13.57;;;8.18;;
52650;SDS011;38537;47.226;39.702;2023-02-01T10:08:04;10.15;;;7.93;;
52650;SDS011;38537;47.226;39.702;2023-02-01T10:10:53;14.30;;;10.23;;
52650;SDS011;38537;47.226;39.702;2023-02-01T10:16:32;13.70;;;10.65;;
52650;SDS011;38537;47.226;39.702;2023-02-01T10:21:59;15.30;;;10.90;;
52650;SDS011;38537;47.226;39.702;2023-02-01T10:27:20;19.00;;;12.88;;
52650;SDS011;38537;47.226;39.702;2023-02-01T10:29:57;15.05;;;11.57;;
52650;SDS011;38537;47.226;39.702;2023-02-01T10:32:31;13.32;;;10.38;;
52650;SDS011;38537;47.226;39.702;2023-02-01T10:35:04;15.80;;;11.60;;
52650;SDS011;38537;47.226;39.702;2023-02-01T10:37:46;13.65;;;10.45;;
52650;SDS011;38537;47.226;39.702;2023-02-01T10:40:20;14.07;;;10.55;;
52650;SDS011;38537;47.226;39.702;2023-02-01T10:42:53;13.13;;;9.88;;
52650;SDS011;38537;47.226;39.702;2023-02-01T10:45:25;13.35;;;10.70;;
52650;SDS011;38537;47.226;39.702;2023-02-01T10:47:55;15.50;;;10.77;;
52650;SDS011;38537;47.226;39.702;2023-02-01T10:50:48;18.58;;;11.52;;
52650;SDS011;38537;47.226;39.702;2023-02-01T10:56:25;16.75;;;12.55;;
52650;SDS011;38537;47.226;39.702;2023-02-01T10:59:00;15.68;;;11.88;;
52650;SDS011;38537;47.226;39.702;2023-02-01T11:01:39;16.08;;;11.93;;
52650;SDS011;38537;47.226;39.702;2023-02-01T11:04:18;17.05;;;12.75;;
52650;SDS011;38537;47.226;39.702;2023-02-01T11:06:54;24.13;;;15.48;;
52650;SDS011;38537;47.226;39.702;2023-02-01T11:09:32;19.13;;;12.07;;
52650;SDS011;38537;47.226;39.702;2023-02-01T11:12:01;19.65;;;14.32;;
52650;SDS011;38537;47.226;39.702;2023-02-01T11:14:34;17.38;;;11.63;;
52650;SDS011;38537;47.226;39.702;2023-02-01T11:19:45;22.20;;;14.27;;
52650;SDS011;38537;47.226;39.702;2023-02-01T11:22:32;21.25;;;15.75;;
52650;SDS011;38537;47.226;39.702;2023-02-01T11:25:01;23.23;;;14.30;;
52650;SDS011;38537;47.226;39.702;2023-02-01T11:27:36;20.30;;;13.52;;
52650;SDS011;38537;47.226;39.702;2023-02-01T11:30:33;19.70;;;13.93;;
52650;SDS011;38537;47.226;39.702;2023-02-01T11:33:03;22.83;;;14.32;;
52650;SDS011;38537;47.226;39.702;2023-02-01T11:35:32;20.33;;;14.07;;
52650;SDS011;38537;47.226;39.702;2023-02-01T11:38:11;20.17;;;13.98;;
52650;SDS011;38537;47.226;39.702;2023-02-01T11:40:44;18.08;;;11.85;;
52650;SDS011;38537;47.226;39.702;2023-02-01T11:43:22;20.00;;;14.48;;
52650;SDS011;38537;47.226;39.702;2023-02-01T11:45:56;16.67;;;11.82;;
52650;SDS011;38537;47.226;39.702;2023-02-01T11:48:29;22.15;;;13.50;;
52650;SDS011;38537;47.226;39.702;2023-02-01T11:54:11;16.70;;;12.20;;
52650;SDS011;38537;47.226;39.702;2023-02-01T12:23:58;29.88;;;16.50;;
52650;SDS011;38537;47.226;39.702;2023-02-01T12:46:07;21.23;;;13.95;;
52650;SDS011;38537;47.226;39.702;2023-02-01T12:51:39;20.35;;;12.52;;
52650;SDS011;38537;47.226;39.702;2023-02-01T12:54:21;20.60;;;13.02;;
52650;SDS011;38537;47.226;39.702;2023-02-01T12:57:03;18.10;;;13.23;;
52650;SDS011;38537;47.226;39.702;2023-02-01T12:59:36;17.08;;;12.50;;
52650;SDS011;38537;47.226;39.702;2023-02-01T13:04:58;17.02;;;12.80;;
52650;SDS011;38537;47.226;39.702;2023-02-01T13:07:34;19.92;;;13.40;;
52650;SDS011;38537;47.226;39.702;2023-02-01T13:18:56;22.52;;;14.77;;
52650;SDS011;38537;47.226;39.702;2023-02-01T13:21:32;19.63;;;13.88;;
52650;SDS011;38537;47.226;39.702;2023-02-01T13:24:03;22.35;;;14.52;;
52650;SDS011;38537;47.226;39.702;2023-02-01T13:26:31;21.17;;;14.40;;
52650;SDS011;38537;47.226;39.702;2023-02-01T13:34:34;23.55;;;16.02;;
52650;SDS011;38537;47.226;39.702;2023-02-01T13:40:39;21.95;;;15.27;;
52650;SDS011;38537;47.226;39.702;2023-02-01T13:46:02;28.40;;;18.15;;
52650;SDS011;38537;47.226;39.702;2023-02-01T13:48:36;25.73;;;16.70;;
52650;SDS011;38537;47.226;39.702;2023-02-01T13:51:08;30.33;;;16.85;;
52650;SDS011;38537;47.226;39.702;2023-02-01T13:53:36;27.20;;;17.00;;
52650;SDS011;38537;47.226;39.702;2023-02-01T13:56:15;29.00;;;18.15;;
52650;SDS011;38537;47.226;39.702;2023-02-01T13:58:45;25.77;;;17.67;;
52650;SDS011;38537;47.226;39.702;2023-02-01T14:03:57;25.05;;;16.60;;
52650;SDS011;38537;47.226;39.702;2023-02-01T14:11:38;30.38;;;16.83;;
52650;SDS011;38537;47.226;39.702;2023-02-01T14:21:52;26.50;;;15.95;;
52650;SDS011;38537;47.226;39.702;2023-02-01T14:24:34;23.67;;;16.38;;
52650;SDS011;38537;47.226;39.702;2023-02-01T14:29:41;23.20;;;16.67;;
52650;SDS011;38537;47.226;39.702;2023-02-01T14:32:19;25.00;;;16.35;;
52650;SDS011;38537;47.226;39.702;2023-02-01T14:34:50;23.17;;;15.73;;
52650;SDS011;38537;47.226;39.702;2023-02-01T14:39:56;27.85;;;16.17;;
52650;SDS011;38537;47.226;39.702;2023-02-01T14:47:53;28.20;;;14.45;;
52650;SDS011;38537;47.226;39.702;2023-02-01T14:58:14;25.05;;;15.25;;
52650;SDS011;38537;47.226;39.702;2023-02-01T15:00:52;18.92;;;13.48;;
52650;SDS011;38537;47.226;39.702;2023-02-01T15:09:17;23.70;;;14.95;;
52650;SDS011;38537;47.226;39.702;2023-02-01T15:14:43;29.92;;;14.85;;
52650;SDS011;38537;47.226;39.702;2023-02-01T15:17:20;22.50;;;14.38;;
52650;SDS011;38537;47.226;39.702;2023-02-01T15:19:57;22.27;;;14.40;;
52650;SDS011;38537;47.226;39.702;2023-02-01T15:22:27;20.10;;;14.52;;
52650;SDS011;38537;47.226;39.702;2023-02-01T15:24:57;19.52;;;13.68;;
52650;SDS011;38537;47.226;39.702;2023-02-01T15:27:26;18.60;;;13.25;;
52650;SDS011;38537;47.226;39.702;2023-02-01T15:30:04;27.40;;;17.58;;
52650;SDS011;38537;47.226;39.702;2023-02-01T15:32:36;21.85;;;15.27;;
52650;SDS011;38537;47.226;39.702;2023-02-01T15:35:05;24.45;;;14.90;;
52650;SDS011;38537;47.226;39.702;2023-02-01T15:38:09;29.48;;;16.42;;
52650;SDS011;38537;47.226;39.702;2023-02-01T15:46:15;18.95;;;12.80;;
52650;SDS011;38537;47.226;39.702;2023-02-01T15:48:49;16.20;;;11.60;;
52650;SDS011;38537;47.226;39.702;2023-02-01T15:51:20;17.88;;;12.05;;
52650;SDS011;38537;47.226;39.702;2023-02-01T15:53:56;18.92;;;12.45;;
52650;SDS011;38537;47.226;39.702;2023-02-01T15:56:36;23.00;;;13.45;;
52650;SDS011;38537;47.226;39.702;2023-02-01T15:59:06;20.02;;;12.27;;
52650;SDS011;38537;47.226;39.702;2023-02-01T16:01:49;18.23;;;12.20;;
52650;SDS011;38537;47.226;39.702;2023-02-01T16:04:20;21.75;;;13.27;;
52650;SDS011;38537;47.226;39.702;2023-02-01T16:06:53;30.95;;;15.15;;
52650;SDS011;38537;47.226;39.702;2023-02-01T16:09:23;23.58;;;14.50;;
52650;SDS011;38537;47.226;39.702;2023-02-01T16:11:57;23.25;;;13.70;;
52650;SDS011;38537;47.226;39.702;2023-02-01T16:14:27;21.50;;;13.20;;
52650;SDS011;38537;47.226;39.702;2023-02-01T16:16:57;18.65;;;12.30;;
52650;SDS011;38537;47.226;39.702;2023-02-01T16:19:25;17.52;;;11.68;;
52650;SDS011;38537;47.226;39.702;2023-02-01T16:21:56;20.25;;;13.48;;
52650;SDS011;38537;47.226;39.702;2023-02-01T16:24:25;22.60;;;13.02;;
52650;SDS011;38537;47.226;39.702;2023-02-01T16:26:52;17.23;;;12.00;;
52650;SDS011;38537;47.226;39.702;2023-02-01T16:29:20;16.48;;;10.93;;
52650;SDS011;38537;47.226;39.702;2023-02-01T16:31:48;14.38;;;10.50;;
52650;SDS011;38537;47.226;39.702;2023-02-01T16:34:16;17.65;;;11.20;;
52650;SDS011;38537;47.226;39.702;2023-02-01T16:36:48;14.52;;;10.40;;
52650;SDS011;38537;47.226;39.702;2023-02-01T16:39:19;14.90;;;9.52;;
52650;SDS011;38537;47.226;39.702;2023-02-01T16:41:47;14.40;;;9.38;;
52650;SDS011;38537;47.226;39.702;2023-02-01T16:44:14;14.85;;;10.52;;
52650;SDS011;38537;47.226;39.702;2023-02-01T16:46:45;15.18;;;11.43;;
52650;SDS011;38537;47.226;39.702;2023-02-01T16:49:25;14.85;;;10.68;;
52650;SDS011;38537;47.226;39.702;2023-02-01T16:51:56;17.77;;;11.40;;
52650;SDS011;38537;47.226;39.702;2023-02-01T16:54:25;13.57;;;10.35;;
52650;SDS011;38537;47.226;39.702;2023-02-01T16:56:53;17.80;;;11.20;;
52650;SDS011;38537;47.226;39.702;2023-02-01T16:59:20;15.52;;;10.93;;
52650;SDS011;38537;47.226;39.702;2023-02-01T17:01:55;16.60;;;11.68;;
52650;SDS011;38537;47.226;39.702;2023-02-01T17:04:22;16.02;;;10.95;;
52650;SDS011;38537;47.226;39.702;2023-02-01T17:06:53;14.70;;;11.00;;
52650;SDS011;38537;47.226;39.702;2023-02-01T17:09:20;17.33;;;12.30;;
52650;SDS011;38537;47.226;39.702;2023-02-01T17:11:48;22.77;;;14.45;;
52650;SDS011;38537;47.226;39.702;2023-02-01T17:14:16;19.10;;;11.90;;
52650;SDS011;38537;47.226;39.702;2023-02-01T17:16:49;18.02;;;12.23;;
52650;SDS011;38537;47.226;39.702;2023-02-01T17:19:21;19.17;;;12.50;;
52650;SDS011;38537;47.226;39.702;2023-02-01T17:21:52;16.40;;;12.43;;
52650;SDS011;38537;47.226;39.702;2023-02-01T17:24:28;14.88;;;11.10;;
52650;SDS011;38537;47.226;39.702;2023-02-01T17:27:14;16.88;;;11.38;;
52650;SDS011;38537;47.226;39.702;2023-02-01T17:29:42;18.83;;;12.20;;
52650;SDS011;38537;47.226;39.702;2023-02-01T17:32:16;17.38;;;11.77;;
52650;SDS011;38537;47.226;39.702;2023-02-01T17:34:47;19.08;;;12.20;;
52650;SDS011;38537;47.226;39.702;2023-02-01T17:37:21;16.10;;;11.85;;
52650;SDS011;38537;47.226;39.702;2023-02-01T17:40:00;16.88;;;11.60;;
52650;SDS011;38537;47.226;39.702;2023-02-01T17:42:29;17.02;;;11.60;;
52650;SDS011;38537;47.226;39.702;2023-02-01T17:44:58;17.90;;;12.27;;
52650;SDS011;38537;47.226;39.702;2023-02-01T17:47:30;16.70;;;11.32;;